sensor_id;sensor_type;location;lat;lon;timestamp;P1;durP1;ratioP1;P2;durP2;ratioP2
15155;SDS011;7678;50.058;8.306;2023-02-12T00:01:15;24.63;;;17.20;;
15155;SDS011;7678;50.058;8.306;2023-02-12T00:03:45;22.00;;;16.00;;
15155;SDS011;7678;50.058;8.306;2023-02-12T00:06:13;24.60;;;18.53;;
15155;SDS011;7678;50.058;8.306;2023-02-12T00:08:41;26.13;;;18.70;;
15155;SDS011;7678;50.058;8.306;2023-02-12T00:11:11;25.27;;;17.87;;
15155;SDS011;7678;50.058;8.306;2023-02-12T00:13:40;26.17;;;18.40;;
15155;SDS011;7678;50.058;8.306;2023-02-12T00:16:10;24.73;;;16.10;;
15155;SDS011;7678;50.058;8.306;2023-02-12T00:18:41;27.03;;;18.77;;
15155;SDS011;7678;50.058;8.306;2023-02-12T00:21:09;22.33;;;15.93;;
15155;SDS011;7678;50.058;8.306;2023-02-12T00:23:39;24.47;;;17.03;;
15155;SDS011;7678;50.058;8.306;2023-02-12T00:26:08;20.97;;;16.40;;
15155;SDS011;7678;50.058;8.306;2023-02-12T00:28:37;25.47;;;18.20;;
15155;SDS011;7678;50.058;8.306;2023-02-12T00:31:06;23.07;;;16.77;;
15155;SDS011;7678;50.058;8.306;2023-02-12T00:33:35;25.37;;;18.90;;
15155;SDS011;7678;50.058;8.306;2023-02-12T00:36:05;22.40;;;17.30;;
15155;SDS011;7678;50.058;8.306;2023-02-12T00:38:33;34.27;;;22.53;;
15155;SDS011;7678;50.058;8.306;2023-02-12T00:41:01;33.10;;;21.77;;
15155;SDS011;7678;50.058;8.306;2023-02-12T00:43:29;29.03;;;20.50;;
15155;SDS011;7678;50.058;8.306;2023-02-12T00:45:57;37.33;;;23.07;;
15155;SDS011;7678;50.058;8.306;2023-02-12T00:48:26;34.13;;;23.23;;
15155;SDS011;7678;50.058;8.306;2023-02-12T00:50:54;26.00;;;19.33;;
15155;SDS011;7678;50.058;8.306;2023-02-12T00:53:23;25.97;;;18.53;;
15155;SDS011;7678;50.058;8.306;2023-02-12T00:55:51;35.17;;;23.97;;
15155;SDS011;7678;50.058;8.306;2023-02-12T00:58:20;34.87;;;23.67;;
15155;SDS011;7678;50.058;8.306;2023-02-12T01:00:49;38.70;;;24.30;;
15155;SDS011;7678;50.058;8.306;2023-02-12T01:03:17;35.10;;;23.13;;
15155;SDS011;7678;50.058;8.306;2023-02-12T01:05:45;29.13;;;21.27;;
15155;SDS011;7678;50.058;8.306;2023-02-12T01:08:14;29.10;;;19.60;;
15155;SDS011;7678;50.058;8.306;2023-02-12T01:10:44;28.83;;;20.07;;
15155;SDS011;7678;50.058;8.306;2023-02-12T01:13:12;27.60;;;19.43;;
15155;SDS011;7678;50.058;8.306;2023-02-12T01:15:41;26.17;;;19.13;;
15155;SDS011;7678;50.058;8.306;2023-02-12T01:18:09;28.40;;;19.37;;
15155;SDS011;7678;50.058;8.306;2023-02-12T01:20:38;30.43;;;19.90;;
15155;SDS011;7678;50.058;8.306;2023-02-12T01:23:09;30.63;;;21.73;;
15155;SDS011;7678;50.058;8.306;2023-02-12T01:25:37;28.17;;;19.53;;
15155;SDS011;7678;50.058;8.306;2023-02-12T01:28:07;31.87;;;20.73;;
15155;SDS011;7678;50.058;8.306;2023-02-12T01:30:36;31.23;;;20.67;;
15155;SDS011;7678;50.058;8.306;2023-02-12T01:33:05;29.47;;;21.17;;
15155;SDS011;7678;50.058;8.306;2023-02-12T01:35:33;34.67;;;22.77;;
15155;SDS011;7678;50.058;8.306;2023-02-12T01:38:03;33.07;;;23.37;;
15155;SDS011;7678;50.058;8.306;2023-02-12T01:40:31;30.03;;;22.43;;
15155;SDS011;7678;50.058;8.306;2023-02-12T01:42:59;29.00;;;21.67;;
15155;SDS011;7678;50.058;8.306;2023-02-12T01:48:15;28.23;;;19.50;;
15155;SDS011;7678;50.058;8.306;2023-02-12T01:50:44;30.73;;;19.53;;
15155;SDS011;7678;50.058;8.306;2023-02-12T01:53:15;31.07;;;20.97;;
15155;SDS011;7678;50.058;8.306;2023-02-12T01:55:46;29.23;;;20.63;;
15155;SDS011;7678;50.058;8.306;2023-02-12T01:58:15;28.83;;;20.27;;
15155;SDS011;7678;50.058;8.306;2023-02-12T02:00:45;24.33;;;18.60;;
15155;SDS011;7678;50.058;8.306;2023-02-12T02:03:14;26.03;;;19.97;;
15155;SDS011;7678;50.058;8.306;2023-02-12T02:05:44;24.63;;;18.47;;
15155;SDS011;7678;50.058;8.306;2023-02-12T02:08:16;26.80;;;19.50;;
15155;SDS011;7678;50.058;8.306;2023-02-12T02:10:45;26.47;;;18.53;;
15155;SDS011;7678;50.058;8.306;2023-02-12T02:13:13;26.17;;;19.57;;
15155;SDS011;7678;50.058;8.306;2023-02-12T02:16:01;27.37;;;19.30;;
15155;SDS011;7678;50.058;8.306;2023-02-12T02:18:37;29.97;;;19.17;;
15155;SDS011;7678;50.058;8.306;2023-02-12T02:21:13;25.93;;;19.33;;
15155;SDS011;7678;50.058;8.306;2023-02-12T02:24:09;24.37;;;17.77;;
15155;SDS011;7678;50.058;8.306;2023-02-12T02:29:33;26.00;;;18.97;;
15155;SDS011;7678;50.058;8.306;2023-02-12T02:32:13;25.00;;;18.53;;
15155;SDS011;7678;50.058;8.306;2023-02-12T02:34:46;26.03;;;18.80;;
15155;SDS011;7678;50.058;8.306;2023-02-12T02:37:22;24.97;;;18.13;;
15155;SDS011;7678;50.058;8.306;2023-02-12T02:39:56;28.60;;;19.23;;
15155;SDS011;7678;50.058;8.306;2023-02-12T02:42:32;26.80;;;19.23;;
15155;SDS011;7678;50.058;8.306;2023-02-12T02:45:06;26.50;;;20.13;;
15155;SDS011;7678;50.058;8.306;2023-02-12T02:47:40;26.63;;;18.90;;
15155;SDS011;7678;50.058;8.306;2023-02-12T02:50:13;26.73;;;18.80;;
15155;SDS011;7678;50.058;8.306;2023-02-12T02:52:44;29.00;;;19.70;;
15155;SDS011;7678;50.058;8.306;2023-02-12T02:55:16;31.00;;;21.10;;
15155;SDS011;7678;50.058;8.306;2023-02-12T02:57:47;25.43;;;18.90;;
15155;SDS011;7678;50.058;8.306;2023-02-12T03:00:22;27.50;;;19.40;;
15155;SDS011;7678;50.058;8.306;2023-02-12T03:02:55;26.13;;;19.37;;
15155;SDS011;7678;50.058;8.306;2023-02-12T03:05:30;30.37;;;20.80;;
15155;SDS011;7678;50.058;8.306;2023-02-12T03:08:02;28.03;;;20.20;;
15155;SDS011;7678;50.058;8.306;2023-02-12T03:10:35;27.03;;;19.70;;
15155;SDS011;7678;50.058;8.306;2023-02-12T03:13:07;29.37;;;20.63;;
15155;SDS011;7678;50.058;8.306;2023-02-12T03:15:39;26.80;;;19.23;;
15155;SDS011;7678;50.058;8.306;2023-02-12T03:18:15;26.97;;;19.50;;
15155;SDS011;7678;50.058;8.306;2023-02-12T03:20:46;28.50;;;20.73;;
15155;SDS011;7678;50.058;8.306;2023-02-12T03:23:18;27.70;;;20.60;;
15155;SDS011;7678;50.058;8.306;2023-02-12T03:25:52;28.67;;;20.40;;
15155;SDS011;7678;50.058;8.306;2023-02-12T03:28:25;28.17;;;20.33;;
15155;SDS011;7678;50.058;8.306;2023-02-12T03:30:57;27.50;;;19.33;;
15155;SDS011;7678;50.058;8.306;2023-02-12T03:33:34;29.23;;;19.93;;
15155;SDS011;7678;50.058;8.306;2023-02-12T03:36:12;26.07;;;19.53;;
15155;SDS011;7678;50.058;8.306;2023-02-12T03:38:48;27.27;;;19.90;;
15155;SDS011;7678;50.058;8.306;2023-02-12T03:41:20;28.97;;;19.90;;
15155;SDS011;7678;50.058;8.306;2023-02-12T03:43:54;33.40;;;21.63;;
15155;SDS011;7678;50.058;8.306;2023-02-12T03:46:30;30.53;;;21.80;;
15155;SDS011;7678;50.058;8.306;2023-02-12T03:49:07;30.33;;;20.93;;
15155;SDS011;7678;50.058;8.306;2023-02-12T03:51:38;28.40;;;19.67;;
15155;SDS011;7678;50.058;8.306;2023-02-12T03:54:09;27.10;;;19.43;;
15155;SDS011;7678;50.058;8.306;2023-02-12T03:56:42;27.00;;;19.30;;
15155;SDS011;7678;50.058;8.306;2023-02-12T03:59:17;25.50;;;18.33;;
15155;SDS011;7678;50.058;8.306;2023-02-12T04:01:46;27.07;;;19.17;;
15155;SDS011;7678;50.058;8.306;2023-02-12T04:04:16;26.43;;;19.13;;
15155;SDS011;7678;50.058;8.306;2023-02-12T04:06:45;27.43;;;18.87;;
15155;SDS011;7678;50.058;8.306;2023-02-12T04:09:15;25.27;;;19.50;;
15155;SDS011;7678;50.058;8.306;2023-02-12T04:11:46;26.17;;;19.43;;
15155;SDS011;7678;50.058;8.306;2023-02-12T04:14:24;30.07;;;21.47;;
15155;SDS011;7678;50.058;8.306;2023-02-12T04:16:59;26.97;;;19.50;;
15155;SDS011;7678;50.058;8.306;2023-02-12T04:19:37;32.87;;;23.03;;
15155;SDS011;7678;50.058;8.306;2023-02-12T04:22:14;32.73;;;22.90;;
15155;SDS011;7678;50.058;8.306;2023-02-12T04:24:52;33.73;;;23.90;;
15155;SDS011;7678;50.058;8.306;2023-02-12T04:27:34;33.33;;;23.20;;
15155;SDS011;7678;50.058;8.306;2023-02-12T04:30:11;30.70;;;22.00;;
15155;SDS011;7678;50.058;8.306;2023-02-12T04:32:47;29.77;;;21.83;;
15155;SDS011;7678;50.058;8.306;2023-02-12T04:35:21;31.60;;;21.47;;
15155;SDS011;7678;50.058;8.306;2023-02-12T04:37:54;32.23;;;21.60;;
15155;SDS011;7678;50.058;8.306;2023-02-12T04:40:29;27.40;;;20.73;;
15155;SDS011;7678;50.058;8.306;2023-02-12T04:42:57;30.67;;;21.30;;
15155;SDS011;7678;50.058;8.306;2023-02-12T04:45:26;33.83;;;23.07;;
15155;SDS011;7678;50.058;8.306;2023-02-12T04:47:55;32.67;;;22.10;;
15155;SDS011;7678;50.058;8.306;2023-02-12T04:50:25;29.90;;;21.93;;
15155;SDS011;7678;50.058;8.306;2023-02-12T04:52:53;33.77;;;22.67;;
15155;SDS011;7678;50.058;8.306;2023-02-12T04:55:21;31.77;;;22.70;;
15155;SDS011;7678;50.058;8.306;2023-02-12T04:57:49;30.53;;;21.47;;
15155;SDS011;7678;50.058;8.306;2023-02-12T05:00:17;29.07;;;20.30;;
15155;SDS011;7678;50.058;8.306;2023-02-12T05:02:45;31.77;;;21.73;;
15155;SDS011;7678;50.058;8.306;2023-02-12T05:05:13;29.03;;;20.50;;
15155;SDS011;7678;50.058;8.306;2023-02-12T05:07:43;32.30;;;22.17;;
15155;SDS011;7678;50.058;8.306;2023-02-12T05:10:11;33.70;;;22.47;;
15155;SDS011;7678;50.058;8.306;2023-02-12T05:12:39;33.07;;;21.83;;
15155;SDS011;7678;50.058;8.306;2023-02-12T05:15:07;35.70;;;22.77;;
15155;SDS011;7678;50.058;8.306;2023-02-12T05:17:35;28.40;;;22.13;;
15155;SDS011;7678;50.058;8.306;2023-02-12T05:20:04;32.97;;;23.60;;
15155;SDS011;7678;50.058;8.306;2023-02-12T05:22:33;29.93;;;21.03;;
15155;SDS011;7678;50.058;8.306;2023-02-12T05:25:02;32.73;;;22.63;;
15155;SDS011;7678;50.058;8.306;2023-02-12T05:27:30;33.00;;;21.00;;
15155;SDS011;7678;50.058;8.306;2023-02-12T05:29:59;29.93;;;21.10;;
15155;SDS011;7678;50.058;8.306;2023-02-12T05:32:27;30.17;;;21.23;;
15155;SDS011;7678;50.058;8.306;2023-02-12T05:34:55;28.93;;;21.53;;
15155;SDS011;7678;50.058;8.306;2023-02-12T05:37:23;30.83;;;21.00;;
15155;SDS011;7678;50.058;8.306;2023-02-12T05:39:52;29.30;;;20.07;;
15155;SDS011;7678;50.058;8.306;2023-02-12T05:42:21;31.10;;;21.93;;
15155;SDS011;7678;50.058;8.306;2023-02-12T05:44:49;33.93;;;22.73;;
15155;SDS011;7678;50.058;8.306;2023-02-12T05:47:17;31.27;;;21.40;;
15155;SDS011;7678;50.058;8.306;2023-02-12T05:49:45;28.13;;;20.30;;
15155;SDS011;7678;50.058;8.306;2023-02-12T05:52:13;28.30;;;20.50;;
15155;SDS011;7678;50.058;8.306;2023-02-12T05:54:41;32.87;;;22.27;;
15155;SDS011;7678;50.058;8.306;2023-02-12T05:57:09;32.37;;;21.87;;
15155;SDS011;7678;50.058;8.306;2023-02-12T05:59:39;31.93;;;21.87;;
15155;SDS011;7678;50.058;8.306;2023-02-12T06:02:07;41.57;;;27.00;;
15155;SDS011;7678;50.058;8.306;2023-02-12T06:04:35;41.23;;;27.67;;
15155;SDS011;7678;50.058;8.306;2023-02-12T06:07:03;42.80;;;28.47;;
15155;SDS011;7678;50.058;8.306;2023-02-12T06:09:32;38.93;;;25.90;;
15155;SDS011;7678;50.058;8.306;2023-02-12T06:12:01;39.53;;;26.10;;
15155;SDS011;7678;50.058;8.306;2023-02-12T06:14:30;40.60;;;27.23;;
15155;SDS011;7678;50.058;8.306;2023-02-12T06:16:59;40.60;;;26.40;;
15155;SDS011;7678;50.058;8.306;2023-02-12T06:19:27;43.17;;;28.10;;
15155;SDS011;7678;50.058;8.306;2023-02-12T06:21:55;40.17;;;26.17;;
15155;SDS011;7678;50.058;8.306;2023-02-12T06:24:23;41.37;;;26.13;;
15155;SDS011;7678;50.058;8.306;2023-02-12T06:26:52;43.77;;;27.60;;
15155;SDS011;7678;50.058;8.306;2023-02-12T06:29:20;40.73;;;27.93;;
15155;SDS011;7678;50.058;8.306;2023-02-12T06:31:48;43.03;;;28.57;;
15155;SDS011;7678;50.058;8.306;2023-02-12T06:34:18;45.40;;;28.30;;
15155;SDS011;7678;50.058;8.306;2023-02-12T06:36:46;44.10;;;26.97;;
15155;SDS011;7678;50.058;8.306;2023-02-12T06:39:15;42.67;;;28.33;;
15155;SDS011;7678;50.058;8.306;2023-02-12T06:41:43;45.90;;;29.00;;
15155;SDS011;7678;50.058;8.306;2023-02-12T06:44:11;39.13;;;24.90;;
15155;SDS011;7678;50.058;8.306;2023-02-12T06:46:40;36.77;;;24.93;;
15155;SDS011;7678;50.058;8.306;2023-02-12T06:49:09;42.93;;;28.10;;
15155;SDS011;7678;50.058;8.306;2023-02-12T06:51:40;43.13;;;27.43;;
15155;SDS011;7678;50.058;8.306;2023-02-12T06:54:11;47.47;;;30.90;;
15155;SDS011;7678;50.058;8.306;2023-02-12T06:56:41;49.93;;;31.83;;
15155;SDS011;7678;50.058;8.306;2023-02-12T06:59:11;49.33;;;31.90;;
15155;SDS011;7678;50.058;8.306;2023-02-12T07:01:41;52.80;;;31.10;;
15155;SDS011;7678;50.058;8.306;2023-02-12T07:04:10;57.90;;;35.87;;
15155;SDS011;7678;50.058;8.306;2023-02-12T07:06:38;62.90;;;36.23;;
15155;SDS011;7678;50.058;8.306;2023-02-12T07:09:08;56.47;;;33.97;;
15155;SDS011;7678;50.058;8.306;2023-02-12T07:11:36;48.83;;;31.20;;
15155;SDS011;7678;50.058;8.306;2023-02-12T07:14:04;53.80;;;33.43;;
15155;SDS011;7678;50.058;8.306;2023-02-12T07:16:33;61.33;;;34.63;;
15155;SDS011;7678;50.058;8.306;2023-02-12T07:19:01;69.73;;;39.27;;
15155;SDS011;7678;50.058;8.306;2023-02-12T07:21:29;66.80;;;37.00;;
15155;SDS011;7678;50.058;8.306;2023-02-12T07:23:59;69.03;;;39.00;;
15155;SDS011;7678;50.058;8.306;2023-02-12T07:26:27;75.53;;;39.67;;
15155;SDS011;7678;50.058;8.306;2023-02-12T07:28:55;79.13;;;41.43;;
15155;SDS011;7678;50.058;8.306;2023-02-12T07:31:24;84.40;;;42.77;;
15155;SDS011;7678;50.058;8.306;2023-02-12T07:33:52;85.73;;;43.87;;
15155;SDS011;7678;50.058;8.306;2023-02-12T07:36:21;86.20;;;42.47;;
15155;SDS011;7678;50.058;8.306;2023-02-12T07:38:50;79.73;;;42.00;;
15155;SDS011;7678;50.058;8.306;2023-02-12T07:41:20;94.13;;;44.80;;
15155;SDS011;7678;50.058;8.306;2023-02-12T07:43:52;87.53;;;43.33;;
15155;SDS011;7678;50.058;8.306;2023-02-12T07:46:23;88.83;;;43.80;;
15155;SDS011;7678;50.058;8.306;2023-02-12T07:48:55;81.07;;;42.00;;
15155;SDS011;7678;50.058;8.306;2023-02-12T07:51:24;78.80;;;39.90;;
15155;SDS011;7678;50.058;8.306;2023-02-12T07:53:54;79.20;;;38.97;;
15155;SDS011;7678;50.058;8.306;2023-02-12T07:56:24;68.23;;;38.17;;
15155;SDS011;7678;50.058;8.306;2023-02-12T07:58:57;68.00;;;37.53;;
15155;SDS011;7678;50.058;8.306;2023-02-12T08:01:27;68.97;;;36.90;;
15155;SDS011;7678;50.058;8.306;2023-02-12T08:03:57;69.33;;;37.40;;
15155;SDS011;7678;50.058;8.306;2023-02-12T08:06:27;63.40;;;35.50;;
15155;SDS011;7678;50.058;8.306;2023-02-12T08:08:57;63.47;;;35.13;;
15155;SDS011;7678;50.058;8.306;2023-02-12T08:11:28;65.90;;;37.43;;
15155;SDS011;7678;50.058;8.306;2023-02-12T08:13:57;69.10;;;37.17;;
15155;SDS011;7678;50.058;8.306;2023-02-12T08:16:27;66.53;;;36.80;;
15155;SDS011;7678;50.058;8.306;2023-02-12T08:18:56;64.67;;;35.93;;
15155;SDS011;7678;50.058;8.306;2023-02-12T08:21:43;62.03;;;34.67;;
15155;SDS011;7678;50.058;8.306;2023-02-12T08:24:12;67.30;;;36.93;;
15155;SDS011;7678;50.058;8.306;2023-02-12T08:26:42;69.43;;;37.90;;
15155;SDS011;7678;50.058;8.306;2023-02-12T08:29:11;68.83;;;37.57;;
15155;SDS011;7678;50.058;8.306;2023-02-12T08:31:42;62.23;;;36.40;;
15155;SDS011;7678;50.058;8.306;2023-02-12T08:34:15;58.90;;;34.70;;
15155;SDS011;7678;50.058;8.306;2023-02-12T08:36:46;61.47;;;35.93;;
15155;SDS011;7678;50.058;8.306;2023-02-12T08:39:15;56.63;;;33.97;;
15155;SDS011;7678;50.058;8.306;2023-02-12T08:41:45;59.97;;;35.00;;
15155;SDS011;7678;50.058;8.306;2023-02-12T08:44:14;59.17;;;35.00;;
15155;SDS011;7678;50.058;8.306;2023-02-12T08:46:43;62.10;;;35.80;;
15155;SDS011;7678;50.058;8.306;2023-02-12T08:49:13;59.87;;;35.07;;
15155;SDS011;7678;50.058;8.306;2023-02-12T08:51:43;62.27;;;35.87;;
15155;SDS011;7678;50.058;8.306;2023-02-12T08:54:15;58.17;;;33.87;;
15155;SDS011;7678;50.058;8.306;2023-02-12T08:56:51;61.13;;;35.63;;
15155;SDS011;7678;50.058;8.306;2023-02-12T08:59:24;58.00;;;34.63;;
15155;SDS011;7678;50.058;8.306;2023-02-12T09:01:53;59.60;;;34.63;;
15155;SDS011;7678;50.058;8.306;2023-02-12T09:04:23;58.77;;;34.83;;
15155;SDS011;7678;50.058;8.306;2023-02-12T09:06:53;65.13;;;36.37;;
15155;SDS011;7678;50.058;8.306;2023-02-12T09:09:21;64.40;;;36.63;;
15155;SDS011;7678;50.058;8.306;2023-02-12T09:11:52;59.10;;;35.90;;
15155;SDS011;7678;50.058;8.306;2023-02-12T09:14:20;62.37;;;36.90;;
15155;SDS011;7678;50.058;8.306;2023-02-12T09:16:50;63.60;;;36.00;;
15155;SDS011;7678;50.058;8.306;2023-02-12T09:19:19;62.90;;;36.07;;
15155;SDS011;7678;50.058;8.306;2023-02-12T09:21:49;61.37;;;35.23;;
15155;SDS011;7678;50.058;8.306;2023-02-12T09:24:21;55.97;;;35.17;;
15155;SDS011;7678;50.058;8.306;2023-02-12T09:26:49;61.93;;;36.03;;
15155;SDS011;7678;50.058;8.306;2023-02-12T09:29:18;56.20;;;34.87;;
15155;SDS011;7678;50.058;8.306;2023-02-12T09:31:46;63.43;;;36.00;;
15155;SDS011;7678;50.058;8.306;2023-02-12T09:34:15;61.23;;;35.13;;
15155;SDS011;7678;50.058;8.306;2023-02-12T09:36:43;54.03;;;33.27;;
15155;SDS011;7678;50.058;8.306;2023-02-12T09:39:11;53.40;;;33.07;;
15155;SDS011;7678;50.058;8.306;2023-02-12T09:44:34;64.20;;;37.10;;
15155;SDS011;7678;50.058;8.306;2023-02-12T09:47:10;57.40;;;34.83;;
15155;SDS011;7678;50.058;8.306;2023-02-12T09:49:48;55.37;;;33.73;;
15155;SDS011;7678;50.058;8.306;2023-02-12T09:52:32;54.50;;;33.53;;
15155;SDS011;7678;50.058;8.306;2023-02-12T09:55:01;56.93;;;34.50;;
15155;SDS011;7678;50.058;8.306;2023-02-12T09:57:30;46.83;;;30.17;;
15155;SDS011;7678;50.058;8.306;2023-02-12T10:00:05;51.90;;;30.83;;
15155;SDS011;7678;50.058;8.306;2023-02-12T10:02:35;47.57;;;29.50;;
15155;SDS011;7678;50.058;8.306;2023-02-12T10:05:05;47.83;;;29.53;;
15155;SDS011;7678;50.058;8.306;2023-02-12T10:07:49;45.87;;;29.20;;
15155;SDS011;7678;50.058;8.306;2023-02-12T10:10:31;49.10;;;30.80;;
15155;SDS011;7678;50.058;8.306;2023-02-12T10:13:11;47.90;;;29.97;;
15155;SDS011;7678;50.058;8.306;2023-02-12T10:15:48;45.57;;;29.30;;
15155;SDS011;7678;50.058;8.306;2023-02-12T10:18:37;46.53;;;29.60;;
15155;SDS011;7678;50.058;8.306;2023-02-12T10:21:20;54.23;;;29.60;;
15155;SDS011;7678;50.058;8.306;2023-02-12T10:24:00;48.20;;;29.70;;
15155;SDS011;7678;50.058;8.306;2023-02-12T10:26:43;47.97;;;31.60;;
15155;SDS011;7678;50.058;8.306;2023-02-12T10:29:16;53.37;;;32.67;;
15155;SDS011;7678;50.058;8.306;2023-02-12T10:31:50;52.87;;;33.30;;
15155;SDS011;7678;50.058;8.306;2023-02-12T10:34:29;56.53;;;34.00;;
15155;SDS011;7678;50.058;8.306;2023-02-12T10:37:01;57.40;;;34.60;;
15155;SDS011;7678;50.058;8.306;2023-02-12T10:39:34;54.17;;;33.60;;
15155;SDS011;7678;50.058;8.306;2023-02-12T10:42:07;57.77;;;34.77;;
15155;SDS011;7678;50.058;8.306;2023-02-12T10:44:39;59.30;;;36.47;;
15155;SDS011;7678;50.058;8.306;2023-02-12T10:47:10;56.73;;;35.37;;
15155;SDS011;7678;50.058;8.306;2023-02-12T10:49:45;60.27;;;36.23;;
15155;SDS011;7678;50.058;8.306;2023-02-12T10:52:16;56.40;;;34.60;;
15155;SDS011;7678;50.058;8.306;2023-02-12T10:54:54;60.17;;;36.57;;
15155;SDS011;7678;50.058;8.306;2023-02-12T10:57:22;55.43;;;35.37;;
15155;SDS011;7678;50.058;8.306;2023-02-12T10:59:54;58.47;;;42.07;;
15155;SDS011;7678;50.058;8.306;2023-02-12T11:02:26;56.80;;;37.30;;
15155;SDS011;7678;50.058;8.306;2023-02-12T11:04:56;60.45;;;39.10;;
15155;SDS011;7678;50.058;8.306;2023-02-12T11:07:26;61.17;;;38.63;;
15155;SDS011;7678;50.058;8.306;2023-02-12T11:09:57;58.37;;;36.80;;
15155;SDS011;7678;50.058;8.306;2023-02-12T11:12:28;58.07;;;36.27;;
15155;SDS011;7678;50.058;8.306;2023-02-12T11:15:00;58.57;;;35.97;;
15155;SDS011;7678;50.058;8.306;2023-02-12T11:17:34;54.10;;;35.40;;
15155;SDS011;7678;50.058;8.306;2023-02-12T11:20:05;58.50;;;37.07;;
15155;SDS011;7678;50.058;8.306;2023-02-12T11:22:52;63.37;;;38.90;;
15155;SDS011;7678;50.058;8.306;2023-02-12T11:25:23;57.33;;;37.07;;
15155;SDS011;7678;50.058;8.306;2023-02-12T11:28:00;56.30;;;36.07;;
15155;SDS011;7678;50.058;8.306;2023-02-12T11:30:30;63.40;;;37.93;;
15155;SDS011;7678;50.058;8.306;2023-02-12T11:36:01;59.40;;;36.20;;
15155;SDS011;7678;50.058;8.306;2023-02-12T11:38:33;54.97;;;36.37;;
15155;SDS011;7678;50.058;8.306;2023-02-12T11:41:08;56.53;;;35.97;;
15155;SDS011;7678;50.058;8.306;2023-02-12T11:43:50;53.13;;;35.60;;
15155;SDS011;7678;50.058;8.306;2023-02-12T11:46:19;58.20;;;36.17;;
15155;SDS011;7678;50.058;8.306;2023-02-12T11:48:51;56.67;;;34.57;;
15155;SDS011;7678;50.058;8.306;2023-02-12T11:51:24;54.03;;;35.85;;
15155;SDS011;7678;50.058;8.306;2023-02-12T11:53:56;44.80;;;30.57;;
15155;SDS011;7678;50.058;8.306;2023-02-12T11:56:26;46.00;;;30.70;;
15155;SDS011;7678;50.058;8.306;2023-02-12T11:59:09;42.67;;;29.77;;
15155;SDS011;7678;50.058;8.306;2023-02-12T12:01:44;44.37;;;29.37;;
15155;SDS011;7678;50.058;8.306;2023-02-12T12:04:15;40.90;;;26.87;;
15155;SDS011;7678;50.058;8.306;2023-02-12T12:06:47;43.50;;;28.63;;
15155;SDS011;7678;50.058;8.306;2023-02-12T12:09:24;43.80;;;29.43;;
15155;SDS011;7678;50.058;8.306;2023-02-12T12:12:01;35.30;;;24.60;;
15155;SDS011;7678;50.058;8.306;2023-02-12T12:14:37;33.03;;;23.10;;
15155;SDS011;7678;50.058;8.306;2023-02-12T12:17:24;31.67;;;22.67;;
15155;SDS011;7678;50.058;8.306;2023-02-12T12:20:18;32.77;;;23.60;;
15155;SDS011;7678;50.058;8.306;2023-02-12T12:22:52;32.03;;;23.00;;
15155;SDS011;7678;50.058;8.306;2023-02-12T12:25:26;28.73;;;21.40;;
15155;SDS011;7678;50.058;8.306;2023-02-12T12:28:02;33.37;;;22.83;;
15155;SDS011;7678;50.058;8.306;2023-02-12T12:30:51;28.37;;;20.23;;
15155;SDS011;7678;50.058;8.306;2023-02-12T12:33:25;28.10;;;22.83;;
15155;SDS011;7678;50.058;8.306;2023-02-12T12:36:09;30.73;;;23.17;;
15155;SDS011;7678;50.058;8.306;2023-02-12T12:38:55;27.13;;;20.47;;
15155;SDS011;7678;50.058;8.306;2023-02-12T12:41:31;26.13;;;19.70;;
15155;SDS011;7678;50.058;8.306;2023-02-12T12:44:17;26.37;;;19.53;;
15155;SDS011;7678;50.058;8.306;2023-02-12T12:47:01;26.63;;;19.27;;
15155;SDS011;7678;50.058;8.306;2023-02-12T12:49:45;29.37;;;20.30;;
15155;SDS011;7678;50.058;8.306;2023-02-12T12:52:30;25.93;;;18.60;;
15155;SDS011;7678;50.058;8.306;2023-02-12T12:58:35;26.60;;;18.83;;
15155;SDS011;7678;50.058;8.306;2023-02-12T13:01:23;23.50;;;17.40;;
15155;SDS011;7678;50.058;8.306;2023-02-12T13:04:35;26.50;;;17.73;;
15155;SDS011;7678;50.058;8.306;2023-02-12T13:07:32;26.87;;;18.77;;
15155;SDS011;7678;50.058;8.306;2023-02-12T13:10:23;32.03;;;22.07;;
15155;SDS011;7678;50.058;8.306;2023-02-12T13:13:05;27.13;;;20.10;;
15155;SDS011;7678;50.058;8.306;2023-02-12T13:15:43;30.00;;;21.03;;
15155;SDS011;7678;50.058;8.306;2023-02-12T13:18:19;38.50;;;25.97;;
15155;SDS011;7678;50.058;8.306;2023-02-12T13:20:57;38.63;;;26.77;;
15155;SDS011;7678;50.058;8.306;2023-02-12T13:23:36;30.50;;;21.67;;
15155;SDS011;7678;50.058;8.306;2023-02-12T13:26:12;40.03;;;29.03;;
15155;SDS011;7678;50.058;8.306;2023-02-12T13:28:46;32.57;;;22.60;;
15155;SDS011;7678;50.058;8.306;2023-02-12T13:31:19;30.63;;;20.80;;
15155;SDS011;7678;50.058;8.306;2023-02-12T13:34:00;28.37;;;19.93;;
15155;SDS011;7678;50.058;8.306;2023-02-12T13:36:29;29.60;;;21.30;;
15155;SDS011;7678;50.058;8.306;2023-02-12T13:39:11;23.37;;;18.03;;
15155;SDS011;7678;50.058;8.306;2023-02-12T13:41:52;23.73;;;14.17;;
15155;SDS011;7678;50.058;8.306;2023-02-12T13:44:27;12.23;;;9.37;;
15155;SDS011;7678;50.058;8.306;2023-02-12T13:47:01;11.33;;;8.07;;
15155;SDS011;7678;50.058;8.306;2023-02-12T13:49:38;13.57;;;9.07;;
15155;SDS011;7678;50.058;8.306;2023-02-12T13:52:16;9.60;;;7.63;;
15155;SDS011;7678;50.058;8.306;2023-02-12T13:54:55;9.13;;;7.47;;
15155;SDS011;7678;50.058;8.306;2023-02-12T13:57:39;12.03;;;8.10;;
15155;SDS011;7678;50.058;8.306;2023-02-12T14:00:19;14.47;;;9.07;;
15155;SDS011;7678;50.058;8.306;2023-02-12T14:03:28;12.50;;;9.00;;
15155;SDS011;7678;50.058;8.306;2023-02-12T14:06:10;15.37;;;10.50;;
15155;SDS011;7678;50.058;8.306;2023-02-12T14:08:41;12.13;;;9.40;;
15155;SDS011;7678;50.058;8.306;2023-02-12T14:11:12;10.17;;;7.33;;
15155;SDS011;7678;50.058;8.306;2023-02-12T14:13:47;9.80;;;7.47;;
15155;SDS011;7678;50.058;8.306;2023-02-12T14:16:34;13.87;;;9.63;;
15155;SDS011;7678;50.058;8.306;2023-02-12T14:22:11;7.00;;;5.60;;
15155;SDS011;7678;50.058;8.306;2023-02-12T14:24:48;7.87;;;6.37;;
15155;SDS011;7678;50.058;8.306;2023-02-12T14:27:28;9.23;;;6.40;;
15155;SDS011;7678;50.058;8.306;2023-02-12T14:41:37;9.20;;;6.87;;
15155;SDS011;7678;50.058;8.306;2023-02-12T14:47:15;9.03;;;6.53;;
15155;SDS011;7678;50.058;8.306;2023-02-12T14:50:18;10.23;;;6.97;;
15155;SDS011;7678;50.058;8.306;2023-02-12T14:52:50;7.47;;;5.50;;
15155;SDS011;7678;50.058;8.306;2023-02-12T14:55:30;10.63;;;8.13;;
15155;SDS011;7678;50.058;8.306;2023-02-12T14:58:01;9.30;;;7.70;;
15155;SDS011;7678;50.058;8.306;2023-02-12T15:00:35;9.90;;;8.37;;
15155;SDS011;7678;50.058;8.306;2023-02-12T15:03:16;9.53;;;7.13;;
15155;SDS011;7678;50.058;8.306;2023-02-12T15:05:56;11.37;;;8.37;;
15155;SDS011;7678;50.058;8.306;2023-02-12T15:08:35;11.70;;;9.37;;
15155;SDS011;7678;50.058;8.306;2023-02-12T15:11:11;13.03;;;10.03;;
15155;SDS011;7678;50.058;8.306;2023-02-12T15:13:47;15.20;;;9.10;;
15155;SDS011;7678;50.058;8.306;2023-02-12T15:16:22;13.83;;;9.87;;
15155;SDS011;7678;50.058;8.306;2023-02-12T15:18:57;13.70;;;10.73;;
15155;SDS011;7678;50.058;8.306;2023-02-12T15:21:35;21.20;;;11.93;;
15155;SDS011;7678;50.058;8.306;2023-02-12T15:24:05;17.37;;;11.77;;
15155;SDS011;7678;50.058;8.306;2023-02-12T15:26:36;14.63;;;10.30;;
15155;SDS011;7678;50.058;8.306;2023-02-12T15:29:15;15.53;;;11.37;;
15155;SDS011;7678;50.058;8.306;2023-02-12T15:31:51;15.37;;;10.93;;
15155;SDS011;7678;50.058;8.306;2023-02-12T15:34:33;16.57;;;11.20;;
15155;SDS011;7678;50.058;8.306;2023-02-12T15:37:05;16.37;;;12.10;;
15155;SDS011;7678;50.058;8.306;2023-02-12T15:39:37;15.93;;;10.57;;
15155;SDS011;7678;50.058;8.306;2023-02-12T15:42:22;13.37;;;9.67;;